sensor_id;sensor_type;location;lat;lon;timestamp;pressure;altitude;pressure_sealevel;temperature;humidity
30682;BME280;17439;48.092;11.842;2023-03-01T00:00:22;95950.44;;;3.42;64.76
30682;BME280;17439;48.092;11.842;2023-03-01T00:02:49;95951.72;;;3.40;65.75
30682;BME280;17439;48.092;11.842;2023-03-01T00:05:16;95950.38;;;3.37;66.14
30682;BME280;17439;48.092;11.842;2023-03-01T00:07:42;95949.56;;;3.37;66.33
30682;BME280;17439;48.092;11.842;2023-03-01T00:10:10;95952.22;;;3.37;66.01
30682;BME280;17439;48.092;11.842;2023-03-01T00:12:36;95948.50;;;3.38;65.35
30682;BME280;17439;48.092;11.842;2023-03-01T00:15:03;95952.22;;;3.37;66.06
30682;BME280;17439;48.092;11.842;2023-03-01T00:17:30;95948.75;;;3.36;66.58
30682;BME280;17439;48.092;11.842;2023-03-01T00:19:56;95953.81;;;3.33;66.63
30682;BME280;17439;48.092;11.842;2023-03-01T00:22:23;95949.25;;;3.33;66.76
30682;BME280;17439;48.092;11.842;2023-03-01T00:24:50;95949.25;;;3.33;67.03
30682;BME280;17439;48.092;11.842;2023-03-01T00:27:16;95951.44;;;3.36;66.54
30682;BME280;17439;48.092;11.842;2023-03-01T00:29:43;95947.44;;;3.39;66.20
30682;BME280;17439;48.092;11.842;2023-03-01T00:32:09;95941.25;;;3.38;66.05
30682;BME280;17439;48.092;11.842;2023-03-01T00:34:36;95946.31;;;3.35;66.61
30682;BME280;17439;48.092;11.842;2023-03-01T00:37:03;95939.34;;;3.34;67.16
30682;BME280;17439;48.092;11.842;2023-03-01T00:39:29;95935.59;;;3.35;67.31
30682;BME280;17439;48.092;11.842;2023-03-01T00:41:56;95936.97;;;3.37;66.89
30682;BME280;17439;48.092;11.842;2023-03-01T00:44:22;95943.44;;;3.41;66.35
30682;BME280;17439;48.092;11.842;2023-03-01T00:46:49;95940.47;;;3.38;66.68
30682;BME280;17439;48.092;11.842;2023-03-01T00:49:16;95939.66;;;3.37;67.15
30682;BME280;17439;48.092;11.842;2023-03-01T00:51:42;95932.66;;;3.36;67.13
30682;BME280;17439;48.092;11.842;2023-03-01T00:54:09;95932.91;;;3.35;67.60
30682;BME280;17439;48.092;11.842;2023-03-01T00:56:35;95928.09;;;3.37;67.10
30682;BME280;17439;48.092;11.842;2023-03-01T00:59:02;95929.19;;;3.36;66.90
30682;BME280;17439;48.092;11.842;2023-03-01T01:01:30;95923.31;;;3.39;66.26
30682;BME280;17439;48.092;11.842;2023-03-01T01:04:06;95920.06;;;3.37;64.67
30682;BME280;17439;48.092;11.842;2023-03-01T01:06:39;95921.16;;;3.36;65.07
30682;BME280;17439;48.092;11.842;2023-03-01T01:09:06;95916.59;;;3.36;66.44
30682;BME280;17439;48.092;11.842;2023-03-01T01:11:34;95916.03;;;3.34;66.56
30682;BME280;17439;48.092;11.842;2023-03-01T01:14:01;95903.69;;;3.33;66.46
30682;BME280;17439;48.092;11.842;2023-03-01T01:16:29;95905.56;;;3.33;66.24
30682;BME280;17439;48.092;11.842;2023-03-01T01:18:56;95896.91;;;3.25;65.75
30682;BME280;17439;48.092;11.842;2023-03-01T01:21:24;95894.28;;;3.31;66.96
30682;BME280;17439;48.092;11.842;2023-03-01T01:23:51;95903.16;;;3.31;66.80
30682;BME280;17439;48.092;11.842;2023-03-01T01:26:29;95898.28;;;3.28;65.40
30682;BME280;17439;48.092;11.842;2023-03-01T01:28:57;95890.25;;;3.28;67.61
30682;BME280;17439;48.092;11.842;2023-03-01T01:31:24;95888.63;;;3.27;67.56
30682;BME280;17439;48.092;11.842;2023-03-01T01:33:52;95884.06;;;3.27;67.90
30682;BME280;17439;48.092;11.842;2023-03-01T01:36:19;95874.47;;;3.32;66.17
30682;BME280;17439;48.092;11.842;2023-03-01T01:38:46;95877.16;;;3.32;66.61
30682;BME280;17439;48.092;11.842;2023-03-01T01:41:13;95877.41;;;3.30;67.17
30682;BME280;17439;48.092;11.842;2023-03-01T01:43:43;95870.72;;;3.33;67.05
30682;BME280;17439;48.092;11.842;2023-03-01T01:49:03;95871.00;;;3.31;66.26
30682;BME280;17439;48.092;11.842;2023-03-01T01:51:38;95870.78;;;3.38;64.49
30682;BME280;17439;48.092;11.842;2023-03-01T01:54:10;95858.94;;;3.34;65.25
30682;BME280;17439;48.092;11.842;2023-03-01T01:56:42;95851.97;;;3.33;64.93
30682;BME280;17439;48.092;11.842;2023-03-01T01:59:11;95854.66;;;3.33;65.49
30682;BME280;17439;48.092;11.842;2023-03-01T02:01:38;95857.34;;;3.33;64.49
30682;BME280;17439;48.092;11.842;2023-03-01T02:04:04;95849.53;;;3.31;64.50
30682;BME280;17439;48.092;11.842;2023-03-01T02:06:34;95856.75;;;3.31;64.79
30682;BME280;17439;48.092;11.842;2023-03-01T02:12:05;95856.72;;;3.25;64.97
30682;BME280;17439;48.092;11.842;2023-03-01T02:14:32;95854.34;;;3.29;63.90
30682;BME280;17439;48.092;11.842;2023-03-01T02:16:59;95852.16;;;3.26;64.04
30682;BME280;17439;48.092;11.842;2023-03-01T02:20:03;95850.78;;;3.18;62.38
30682;BME280;17439;48.092;11.842;2023-03-01T02:22:36;95848.13;;;3.23;64.25
30682;BME280;17439;48.092;11.842;2023-03-01T02:28:04;95841.06;;;3.12;64.50
30682;BME280;17439;48.092;11.842;2023-03-01T02:30:34;95836.00;;;3.16;65.17
30682;BME280;17439;48.092;11.842;2023-03-01T02:33:03;95838.38;;;3.12;65.30
30682;BME280;17439;48.092;11.842;2023-03-01T02:35:33;95836.75;;;3.11;64.71
30682;BME280;17439;48.092;11.842;2023-03-01T02:38:02;95839.44;;;3.11;65.42
30682;BME280;17439;48.092;11.842;2023-03-01T02:40:30;95844.00;;;3.11;66.16
30682;BME280;17439;48.092;11.842;2023-03-01T02:42:58;95835.13;;;3.10;65.86
30682;BME280;17439;48.092;11.842;2023-03-01T02:45:26;95838.38;;;3.12;66.15
30682;BME280;17439;48.092;11.842;2023-03-01T02:47:54;95837.31;;;3.13;65.85
30682;BME280;17439;48.092;11.842;2023-03-01T02:55:32;95835.19;;;3.15;64.58
30682;BME280;17439;48.092;11.842;2023-03-01T02:58:02;95839.69;;;3.09;64.89
30682;BME280;17439;48.092;11.842;2023-03-01T03:00:35;95835.97;;;3.11;65.20
30682;BME280;17439;48.092;11.842;2023-03-01T03:03:03;95834.59;;;3.08;65.52
30682;BME280;17439;48.092;11.842;2023-03-01T03:05:31;95831.34;;;3.06;65.06
30682;BME280;17439;48.092;11.842;2023-03-01T03:08:00;95831.91;;;3.08;65.56
30682;BME280;17439;48.092;11.842;2023-03-01T03:10:35;95838.63;;;3.11;64.18
30682;BME280;17439;48.092;11.842;2023-03-01T03:13:05;95835.63;;;3.07;64.50
30682;BME280;17439;48.092;11.842;2023-03-01T03:15:33;95835.91;;;3.05;65.46
30682;BME280;17439;48.092;11.842;2023-03-01T03:17:59;95824.91;;;3.07;63.78
30682;BME280;17439;48.092;11.842;2023-03-01T03:20:28;95835.09;;;3.05;63.96
30682;BME280;17439;48.092;11.842;2023-03-01T03:22:56;95828.94;;;3.04;63.58
30682;BME280;17439;48.092;11.842;2023-03-01T03:25:24;95826.50;;;3.03;63.34
30682;BME280;17439;48.092;11.842;2023-03-01T03:27:53;95827.81;;;3.00;64.53
30682;BME280;17439;48.092;11.842;2023-03-01T03:30:20;95826.97;;;2.95;65.07
30682;BME280;17439;48.092;11.842;2023-03-01T03:32:47;95833.38;;;2.94;65.11
30682;BME280;17439;48.092;11.842;2023-03-01T03:35:14;95829.06;;;2.93;64.59
30682;BME280;17439;48.092;11.842;2023-03-01T03:37:41;95827.22;;;2.93;64.76
30682;BME280;17439;48.092;11.842;2023-03-01T03:40:08;95822.13;;;2.92;64.76
30682;BME280;17439;48.092;11.842;2023-03-01T03:42:35;95825.84;;;2.90;65.12
30682;BME280;17439;48.092;11.842;2023-03-01T03:45:02;95815.13;;;2.90;65.14
30682;BME280;17439;48.092;11.842;2023-03-01T03:47:28;95814.59;;;2.88;65.75
30682;BME280;17439;48.092;11.842;2023-03-01T03:49:55;95822.63;;;2.88;66.07
30682;BME280;17439;48.092;11.842;2023-03-01T03:52:21;95823.13;;;2.85;66.30
30682;BME280;17439;48.092;11.842;2023-03-01T03:54:48;95814.53;;;2.83;66.38
30682;BME280;17439;48.092;11.842;2023-03-01T03:57:14;95806.50;;;2.83;66.56
30682;BME280;17439;48.092;11.842;2023-03-01T03:59:41;95809.19;;;2.83;66.76
30682;BME280;17439;48.092;11.842;2023-03-01T04:02:08;95812.13;;;2.82;67.07
30682;BME280;17439;48.092;11.842;2023-03-01T04:04:34;95810.25;;;2.82;67.14
30682;BME280;17439;48.092;11.842;2023-03-01T04:07:01;95801.16;;;2.83;66.92
30682;BME280;17439;48.092;11.842;2023-03-01T04:09:27;95808.09;;;2.84;67.11
30682;BME280;17439;48.092;11.842;2023-03-01T04:11:54;95807.59;;;2.87;66.58
30682;BME280;17439;48.092;11.842;2023-03-01T04:14:20;95807.84;;;2.86;66.25
30682;BME280;17439;48.092;11.842;2023-03-01T04:16:47;95803.25;;;2.81;66.25
30682;BME280;17439;48.092;11.842;2023-03-01T04:19:13;95808.09;;;2.84;65.94
30682;BME280;17439;48.092;11.842;2023-03-01T04:21:40;95807.81;;;2.81;65.80
30682;BME280;17439;48.092;11.842;2023-03-01T04:24:07;95798.41;;;2.78;65.70
30682;BME280;17439;48.092;11.842;2023-03-01T04:26:33;95806.69;;;2.77;66.22
30682;BME280;17439;48.092;11.842;2023-03-01T04:29:00;95805.09;;;2.76;65.64
30682;BME280;17439;48.092;11.842;2023-03-01T04:31:26;95803.97;;;2.71;66.26
30682;BME280;17439;48.092;11.842;2023-03-01T04:33:54;95800.75;;;2.69;66.52
30682;BME280;17439;48.092;11.842;2023-03-01T04:36:24;95797.50;;;2.67;66.70
30682;BME280;17439;48.092;11.842;2023-03-01T04:38:51;95797.56;;;2.72;66.50
30682;BME280;17439;48.092;11.842;2023-03-01T04:41:20;95804.22;;;2.70;65.94
30682;BME280;17439;48.092;11.842;2023-03-01T04:43:47;95800.19;;;2.67;66.03
30682;BME280;17439;48.092;11.842;2023-03-01T04:46:16;95800.44;;;2.66;66.25
30682;BME280;17439;48.092;11.842;2023-03-01T04:48:44;95803.63;;;2.63;66.46
30682;BME280;17439;48.092;11.842;2023-03-01T04:51:11;95795.00;;;2.61;66.82
30682;BME280;17439;48.092;11.842;2023-03-01T04:53:38;95788.59;;;2.62;67.38
30682;BME280;17439;48.092;11.842;2023-03-01T04:56:04;95796.13;;;2.65;65.95
30682;BME280;17439;48.092;11.842;2023-03-01T04:58:31;95799.31;;;2.62;66.24
30682;BME280;17439;48.092;11.842;2023-03-01T05:00:58;95796.88;;;2.60;65.28
30682;BME280;17439;48.092;11.842;2023-03-01T05:03:25;95790.16;;;2.58;65.70
30682;BME280;17439;48.092;11.842;2023-03-01T05:05:52;95791.25;;;2.57;66.08
30682;BME280;17439;48.092;11.842;2023-03-01T05:08:19;95788.81;;;2.55;66.40
30682;BME280;17439;48.092;11.842;2023-03-01T05:10:51;95791.75;;;2.53;65.44
30682;BME280;17439;48.092;11.842;2023-03-01T05:13:19;95797.09;;;2.53;65.73
30682;BME280;17439;48.092;11.842;2023-03-01T05:15:57;95792.78;;;2.52;64.71
30682;BME280;17439;48.092;11.842;2023-03-01T05:18:25;95794.66;;;2.52;66.17
30682;BME280;17439;48.092;11.842;2023-03-01T05:20:52;95788.50;;;2.51;66.22
30682;BME280;17439;48.092;11.842;2023-03-01T05:23:19;95783.16;;;2.51;65.94
30682;BME280;17439;48.092;11.842;2023-03-01T05:25:46;95794.91;;;2.50;65.29
30682;BME280;17439;48.092;11.842;2023-03-01T05:28:13;95782.03;;;2.47;65.53
30682;BME280;17439;48.092;11.842;2023-03-01T05:30:40;95779.31;;;2.42;66.00
30682;BME280;17439;48.092;11.842;2023-03-01T05:33:07;95792.69;;;2.42;66.40
30682;BME280;17439;48.092;11.842;2023-03-01T05:35:34;95783.78;;;2.36;65.75
30682;BME280;17439;48.092;11.842;2023-03-01T05:38:00;95779.50;;;2.35;66.31
30682;BME280;17439;48.092;11.842;2023-03-01T05:40:27;95774.41;;;2.34;66.53
30682;BME280;17439;48.092;11.842;2023-03-01T05:42:55;95775.44;;;2.33;66.38
30682;BME280;17439;48.092;11.842;2023-03-01T05:45:24;95778.88;;;2.28;65.56
30682;BME280;17439;48.092;11.842;2023-03-01T05:47:51;95775.41;;;2.28;66.17
30682;BME280;17439;48.092;11.842;2023-03-01T05:50:29;95778.25;;;2.21;63.29
30682;BME280;17439;48.092;11.842;2023-03-01T05:52:59;95776.16;;;2.23;66.74
30682;BME280;17439;48.092;11.842;2023-03-01T05:55:27;95777.19;;;2.22;66.25
30682;BME280;17439;48.092;11.842;2023-03-01T05:57:54;95765.81;;;2.10;62.02
30682;BME280;17439;48.092;11.842;2023-03-01T06:00:21;95775.22;;;2.12;66.90
30682;BME280;17439;48.092;11.842;2023-03-01T06:02:48;95778.13;;;2.11;66.56
30682;BME280;17439;48.092;11.842;2023-03-01T06:05:15;95788.59;;;2.12;67.39
30682;BME280;17439;48.092;11.842;2023-03-01T06:07:42;95784.03;;;2.13;67.18
30682;BME280;17439;48.092;11.842;2023-03-01T06:10:09;95780.00;;;2.10;66.90
30682;BME280;17439;48.092;11.842;2023-03-01T06:12:38;95785.91;;;2.12;66.77
30682;BME280;17439;48.092;11.842;2023-03-01T06:15:11;95780.56;;;2.12;66.81
30682;BME280;17439;48.092;11.842;2023-03-01T06:17:39;95786.16;;;2.11;66.49
30682;BME280;17439;48.092;11.842;2023-03-01T06:22:38;95777.63;;;2.14;67.28
30682;BME280;17439;48.092;11.842;2023-03-01T06:25:09;95794.56;;;2.20;67.38
30682;BME280;17439;48.092;11.842;2023-03-01T06:27:36;95796.16;;;2.21;67.43
30682;BME280;17439;48.092;11.842;2023-03-01T06:30:03;95796.81;;;2.28;66.65
30682;BME280;17439;48.092;11.842;2023-03-01T06:32:30;95783.97;;;2.30;65.82
30682;BME280;17439;48.092;11.842;2023-03-01T06:34:56;95787.19;;;2.32;65.07
30682;BME280;17439;48.092;11.842;2023-03-01T06:37:23;95778.13;;;2.33;64.40
30682;BME280;17439;48.092;11.842;2023-03-01T06:39:49;95792.56;;;2.32;64.94
30682;BME280;17439;48.092;11.842;2023-03-01T06:42:16;95785.03;;;2.29;64.93
30682;BME280;17439;48.092;11.842;2023-03-01T06:44:44;95787.66;;;2.24;64.71
30682;BME280;17439;48.092;11.842;2023-03-01T06:47:10;95789.78;;;2.22;65.81
30682;BME280;17439;48.092;11.842;2023-03-01T06:49:37;95788.44;;;2.24;66.05
30682;BME280;17439;48.092;11.842;2023-03-01T06:52:04;95791.94;;;2.25;66.40
30682;BME280;17439;48.092;11.842;2023-03-01T06:54:30;95790.88;;;2.26;66.58
30682;BME280;17439;48.092;11.842;2023-03-01T06:56:57;95796.56;;;2.29;66.66
30682;BME280;17439;48.092;11.842;2023-03-01T06:59:24;95791.50;;;2.33;66.87
30682;BME280;17439;48.092;11.842;2023-03-01T07:01:50;95794.72;;;2.35;66.33
30682;BME280;17439;48.092;11.842;2023-03-01T07:04:17;95796.34;;;2.36;66.80
30682;BME280;17439;48.092;11.842;2023-03-01T07:06:43;95795.88;;;2.39;66.87
30682;BME280;17439;48.092;11.842;2023-03-01T07:09:10;95791.34;;;2.45;65.26
30682;BME280;17439;48.092;11.842;2023-03-01T07:11:36;95792.25;;;2.50;64.65
30682;BME280;17439;48.092;11.842;2023-03-01T07:14:03;95788.69;;;2.45;65.01
30682;BME280;17439;48.092;11.842;2023-03-01T07:16:30;95788.69;;;2.45;65.62
30682;BME280;17439;48.092;11.842;2023-03-01T07:18:57;95786.25;;;2.43;65.94
30682;BME280;17439;48.092;11.842;2023-03-01T07:21:25;95786.22;;;2.38;65.05
30682;BME280;17439;48.092;11.842;2023-03-01T07:23:51;95792.69;;;2.42;66.73
30682;BME280;17439;48.092;11.842;2023-03-01T07:26:18;95786.00;;;2.45;67.53
30682;BME280;17439;48.092;11.842;2023-03-01T07:28:44;95777.44;;;2.43;65.96
30682;BME280;17439;48.092;11.842;2023-03-01T07:31:11;95777.72;;;2.46;67.02
30682;BME280;17439;48.092;11.842;2023-03-01T07:33:38;95781.53;;;2.50;67.00
30682;BME280;17439;48.092;11.842;2023-03-01T07:36:05;95778.59;;;2.52;66.03
30682;BME280;17439;48.092;11.842;2023-03-01T07:38:31;95774.88;;;2.53;66.13
30682;BME280;17439;48.092;11.842;2023-03-01T07:41:02;95772.44;;;2.51;61.64
30682;BME280;17439;48.092;11.842;2023-03-01T07:43:30;95768.19;;;2.56;66.16
30682;BME280;17439;48.092;11.842;2023-03-01T07:46:00;95765.56;;;2.61;65.65
30682;BME280;17439;48.092;11.842;2023-03-01T07:48:28;95765.06;;;2.64;66.70
30682;BME280;17439;48.092;11.842;2023-03-01T07:50:57;95763.75;;;2.66;65.30
30682;BME280;17439;48.092;11.842;2023-03-01T07:53:24;95763.00;;;2.71;66.80
30682;BME280;17439;48.092;11.842;2023-03-01T07:56:03;95768.69;;;2.80;66.89
30682;BME280;17439;48.092;11.842;2023-03-01T07:58:30;95762.91;;;2.88;66.95
30682;BME280;17439;48.092;11.842;2023-03-01T08:01:01;95767.47;;;2.93;65.45
30682;BME280;17439;48.092;11.842;2023-03-01T08:03:28;95771.56;;;3.00;67.42
30682;BME280;17439;48.092;11.842;2023-03-01T08:05:55;95764.66;;;3.04;66.37
30682;BME280;17439;48.092;11.842;2023-03-01T08:08:21;95759.31;;;3.09;66.97
30682;BME280;17439;48.092;11.842;2023-03-01T08:10:48;95764.72;;;3.15;67.33
30682;BME280;17439;48.092;11.842;2023-03-01T08:13:14;95760.53;;;3.29;66.89
30682;BME280;17439;48.092;11.842;2023-03-01T08:15:41;95753.06;;;3.31;65.57
30682;BME280;17439;48.092;11.842;2023-03-01T08:18:07;95748.00;;;3.35;65.90
30682;BME280;17439;48.092;11.842;2023-03-01T08:20:34;95750.13;;;3.33;64.72
30682;BME280;17439;48.092;11.842;2023-03-01T08:23:00;95751.78;;;3.39;64.96
30682;BME280;17439;48.092;11.842;2023-03-01T08:25:27;95749.91;;;3.39;64.28
30682;BME280;17439;48.092;11.842;2023-03-01T08:27:53;95753.94;;;3.42;64.83
30682;BME280;17439;48.092;11.842;2023-03-01T08:30:20;95750.69;;;3.40;63.91
30682;BME280;17439;48.092;11.842;2023-03-01T08:32:47;95747.47;;;3.38;63.24
30682;BME280;17439;48.092;11.842;2023-03-01T08:35:13;95744.81;;;3.43;64.74
30682;BME280;17439;48.092;11.842;2023-03-01T08:37:40;95739.25;;;3.50;65.17
30682;BME280;17439;48.092;11.842;2023-03-01T08:40:07;95751.59;;;3.56;64.36
30682;BME280;17439;48.092;11.842;2023-03-01T08:42:34;95740.63;;;3.57;64.61
30682;BME280;17439;48.092;11.842;2023-03-01T08:45:01;95743.06;;;3.59;64.24
30682;BME280;17439;48.092;11.842;2023-03-01T08:47:27;95731.81;;;3.62;65.05
30682;BME280;17439;48.092;11.842;2023-03-01T08:49:54;95735.88;;;3.70;65.64
30682;BME280;17439;48.092;11.842;2023-03-01T08:52:20;95736.69;;;3.75;65.31
30682;BME280;17439;48.092;11.842;2023-03-01T08:54:48;95744.28;;;3.84;65.17
30682;BME280;17439;48.092;11.842;2023-03-01T08:57:14;95730.88;;;3.84;64.36
30682;BME280;17439;48.092;11.842;2023-03-01T08:59:41;95734.09;;;3.91;64.62
30682;BME280;17439;48.092;11.842;2023-03-01T09:02:12;95733.84;;;3.92;62.00
30682;BME280;17439;48.092;11.842;2023-03-01T09:04:40;95737.31;;;3.93;63.87
30682;BME280;17439;48.092;11.842;2023-03-01T09:07:07;95738.16;;;3.98;64.69
30682;BME280;17439;48.092;11.842;2023-03-01T09:09:34;95738.19;;;4.04;64.26
30682;BME280;17439;48.092;11.842;2023-03-01T09:12:01;95739.28;;;4.08;65.10
30682;BME280;17439;48.092;11.842;2023-03-01T09:14:28;95725.59;;;4.09;64.97
30682;BME280;17439;48.092;11.842;2023-03-01T09:16:55;95728.03;;;4.16;65.57
30682;BME280;17439;48.092;11.842;2023-03-01T09:19:21;95723.78;;;4.25;66.16
30682;BME280;17439;48.092;11.842;2023-03-01T09:21:51;95712.78;;;4.32;65.91
30682;BME280;17439;48.092;11.842;2023-03-01T09:24:20;95714.94;;;4.40;65.45
30682;BME280;17439;48.092;11.842;2023-03-01T09:26:47;95707.19;;;4.49;66.98
30682;BME280;17439;48.092;11.842;2023-03-01T09:29:17;95709.88;;;4.59;67.02
30682;BME280;17439;48.092;11.842;2023-03-01T09:31:43;95716.63;;;4.77;61.58
30682;BME280;17439;48.092;11.842;2023-03-01T09:34:10;95716.38;;;4.84;60.23
30682;BME280;17439;48.092;11.842;2023-03-01T09:36:37;95711.53;;;4.91;59.71
30682;BME280;17439;48.092;11.842;2023-03-01T09:39:04;95706.69;;;4.93;60.99
30682;BME280;17439;48.092;11.842;2023-03-01T09:46:58;95709.94;;;5.00;60.57
30682;BME280;17439;48.092;11.842;2023-03-01T09:49:31;95723.63;;;5.04;59.94
30682;BME280;17439;48.092;11.842;2023-03-01T09:54:43;95717.44;;;5.14;58.64
30682;BME280;17439;48.092;11.842;2023-03-01T09:57:18;95719.34;;;5.08;56.23
30682;BME280;17439;48.092;11.842;2023-03-01T09:59:58;95719.34;;;5.08;57.38
30682;BME280;17439;48.092;11.842;2023-03-01T10:02:33;95716.38;;;5.09;61.54
30682;BME280;17439;48.092;11.842;2023-03-01T10:05:23;95715.28;;;5.11;58.68
30682;BME280;17439;48.092;11.842;2023-03-01T10:07:55;95707.78;;;5.07;59.82
30682;BME280;17439;48.092;11.842;2023-03-01T10:10:36;95696.22;;;5.07;53.99
30682;BME280;17439;48.092;11.842;2023-03-01T10:13:14;95705.63;;;5.15;61.62
30682;BME280;17439;48.092;11.842;2023-03-01T10:15:49;95692.44;;;5.18;61.89
30682;BME280;17439;48.092;11.842;2023-03-01T10:18:19;95688.69;;;5.19;61.17
30682;BME280;17439;48.092;11.842;2023-03-01T10:21:26;95688.41;;;5.21;56.96
30682;BME280;17439;48.092;11.842;2023-03-01T10:23:46;95692.72;;;5.22;61.43
30682;BME280;17439;48.092;11.842;2023-03-01T10:29:06;95702.97;;;5.04;59.56
30682;BME280;17439;48.092;11.842;2023-03-01T10:31:43;95705.09;;;4.92;57.98
30682;BME280;17439;48.092;11.842;2023-03-01T10:36:44;95709.91;;;4.75;59.39
30682;BME280;17439;48.092;11.842;2023-03-01T10:39:17;95699.69;;;4.61;56.18
30682;BME280;17439;48.092;11.842;2023-03-01T10:42:05;95693.78;;;4.54;57.72
30682;BME280;17439;48.092;11.842;2023-03-01T10:44:41;95686.53;;;4.44;57.17
30682;BME280;17439;48.092;11.842;2023-03-01T10:47:23;95685.16;;;4.42;58.88
30682;BME280;17439;48.092;11.842;2023-03-01T10:50:02;95672.00;;;4.35;59.81
30682;BME280;17439;48.092;11.842;2023-03-01T10:52:32;95666.09;;;4.33;62.08
30682;BME280;17439;48.092;11.842;2023-03-01T10:55:23;95657.78;;;4.34;58.54
30682;BME280;17439;48.092;11.842;2023-03-01T10:58:06;95654.00;;;4.30;59.51
30682;BME280;17439;48.092;11.842;2023-03-01T11:00:33;95652.16;;;4.36;62.38
30682;BME280;17439;48.092;11.842;2023-03-01T11:03:21;95643.00;;;4.37;61.93
30682;BME280;17439;48.092;11.842;2023-03-01T11:05:55;95643.81;;;4.43;62.03
30682;BME280;17439;48.092;11.842;2023-03-01T11:08:38;95638.72;;;4.41;60.66
30682;BME280;17439;48.092;11.842;2023-03-01T11:13:56;95625.03;;;4.43;58.35
30682;BME280;17439;48.092;11.842;2023-03-01T11:16:31;95622.09;;;4.39;58.13
30682;BME280;17439;48.092;11.842;2023-03-01T11:21:41;95603.28;;;4.49;63.15
30682;BME280;17439;48.092;11.842;2023-03-01T11:24:13;95601.69;;;4.53;61.44
30682;BME280;17439;48.092;11.842;2023-03-01T11:26:44;95597.09;;;4.64;63.59
30682;BME280;17439;48.092;11.842;2023-03-01T11:29:27;95590.13;;;4.73;61.32
30682;BME280;17439;48.092;11.842;2023-03-01T11:32:08;95589.84;;;4.90;64.54
30682;BME280;17439;48.092;11.842;2023-03-01T11:35:15;95585.50;;;5.05;62.59
30682;BME280;17439;48.092;11.842;2023-03-01T11:37:58;95575.00;;;5.08;55.77
30682;BME280;17439;48.092;11.842;2023-03-01T11:43:34;95567.16;;;5.38;62.11
30682;BME280;17439;48.092;11.842;2023-03-01T11:54:54;95566.16;;;5.78;58.43
30682;BME280;17439;48.092;11.842;2023-03-01T12:08:37;95544.59;;;5.89;62.09
30682;BME280;17439;48.092;11.842;2023-03-01T12:29:31;95527.59;;;6.33;59.33
30682;BME280;17439;48.092;11.842;2023-03-01T12:32:43;95521.41;;;6.32;58.25
30682;BME280;17439;48.092;11.842;2023-03-01T12:38:40;95516.81;;;6.38;59.22
30682;BME280;17439;48.092;11.842;2023-03-01T12:41:18;95521.09;;;6.39;57.65
30682;BME280;17439;48.092;11.842;2023-03-01T12:49:49;95515.28;;;6.56;59.67
30682;BME280;17439;48.092;11.842;2023-03-01T12:52:27;95511.75;;;6.61;60.38
30682;BME280;17439;48.092;11.842;2023-03-01T12:55:01;95511.97;;;6.64;62.00
30682;BME280;17439;48.092;11.842;2023-03-01T12:57:36;95509.50;;;6.68;61.50
30682;BME280;17439;48.092;11.842;2023-03-01T13:00:35;95511.91;;;6.75;61.66
30682;BME280;17439;48.092;11.842;2023-03-01T13:03:07;95503.56;;;6.71;59.10
30682;BME280;17439;48.092;11.842;2023-03-01T13:05:58;95516.47;;;6.74;60.17
30682;BME280;17439;48.092;11.842;2023-03-01T13:08:55;95511.56;;;6.81;58.07
30682;BME280;17439;48.092;11.842;2023-03-01T13:11:25;95511.00;;;6.84;62.73
30682;BME280;17439;48.092;11.842;2023-03-01T13:13:51;95507.94;;;6.91;63.19
30682;BME280;17439;48.092;11.842;2023-03-01T13:19:10;95496.41;;;7.34;52.58
30682;BME280;17439;48.092;11.842;2023-03-01T13:21:39;95489.41;;;7.33;56.00
30682;BME280;17439;48.092;11.842;2023-03-01T13:24:27;95487.56;;;7.28;56.03
30682;BME280;17439;48.092;11.842;2023-03-01T13:32:28;95471.91;;;7.49;53.35
30682;BME280;17439;48.092;11.842;2023-03-01T13:35:40;95479.13;;;7.35;55.85
30682;BME280;17439;48.092;11.842;2023-03-01T13:41:04;95475.66;;;7.53;52.38
30682;BME280;17439;48.092;11.842;2023-03-01T13:43:51;95479.72;;;7.51;52.53
30682;BME280;17439;48.092;11.842;2023-03-01T13:46:23;95473.31;;;7.47;51.47
30682;BME280;17439;48.092;11.842;2023-03-01T13:48:52;95468.88;;;7.37;55.07
30682;BME280;17439;48.092;11.842;2023-03-01T13:51:23;95461.34;;;7.34;55.04
30682;BME280;17439;48.092;11.842;2023-03-01T13:53:52;95467.91;;;7.28;57.48
30682;BME280;17439;48.092;11.842;2023-03-01T13:56:35;95475.34;;;7.36;57.27
30682;BME280;17439;48.092;11.842;2023-03-01T13:59:14;95473.03;;;7.48;53.89
30682;BME280;17439;48.092;11.842;2023-03-01T14:01:41;95466.31;;;7.45;53.37
30682;BME280;17439;48.092;11.842;2023-03-01T14:04:23;95461.78;;;7.41;52.67
30682;BME280;17439;48.092;11.842;2023-03-01T14:06:50;95459.63;;;7.43;58.13
30682;BME280;17439;48.092;11.842;2023-03-01T14:09:23;95452.91;;;7.40;54.43
30682;BME280;17439;48.092;11.842;2023-03-01T14:11:57;95458.44;;;7.49;58.98
30682;BME280;17439;48.092;11.842;2023-03-01T14:14:45;95445.78;;;7.50;55.41
30682;BME280;17439;48.092;11.842;2023-03-01T14:17:33;95442.41;;;7.58;56.40
30682;BME280;17439;48.092;11.842;2023-03-01T14:20:21;95439.44;;;7.59;56.87
30682;BME280;17439;48.092;11.842;2023-03-01T14:22:52;95431.81;;;7.61;59.16
30682;BME280;17439;48.092;11.842;2023-03-01T14:27:55;95431.25;;;7.65;57.18
30682;BME280;17439;48.092;11.842;2023-03-01T14:30:31;95439.84;;;7.67;57.64
30682;BME280;17439;48.092;11.842;2023-03-01T14:33:02;95433.28;;;7.73;61.12
30682;BME280;17439;48.092;11.842;2023-03-01T14:35:35;95436.44;;;7.80;60.32
30682;BME280;17439;48.092;11.842;2023-03-01T14:38:03;95428.53;;;7.84;61.50
30682;BME280;17439;48.092;11.842;2023-03-01T14:40:35;95440.94;;;7.85;55.33
30682;BME280;17439;48.092;11.842;2023-03-01T14:43:11;95431.09;;;7.94;56.79
30682;BME280;17439;48.092;11.842;2023-03-01T14:45:38;95432.28;;;8.02;58.48
30682;BME280;17439;48.092;11.842;2023-03-01T14:48:06;95426.59;;;8.03;59.04
30682;BME280;17439;48.092;11.842;2023-03-01T14:50:35;95432.81;;;8.04;59.51
30682;BME280;17439;48.092;11.842;2023-03-01T14:53:06;95420.91;;;8.05;60.84
30682;BME280;17439;48.092;11.842;2023-03-01T14:55:42;95425.31;;;8.01;59.76